Time;durP1;ratioP1;P1;durP2;ratioP2;P2;SDS_P1;SDS_P2;PMS_P1;PMS_P2;Temp;Humidity;BMP_temperature;BMP_pressure;BME280_temperature;BME280_humidity;BME280_pressure;Samples;Min_cycle;Max_cycle;Signal;HPM_P1;HPM_P2
2022/12/22 03:26:57;;;;;;;35.40;14.32;;;;;;;;;;4980008;28;20563;-78
2022/12/22 03:29:23;;;;;;;36.80;14.30;;;;;;;;;;4980360;28;20039;-78
2022/12/22 03:31:50;;;;;;;42.13;15.85;;;;;;;;;;4979084;28;20031;-78
2022/12/22 03:34:16;;;;;;;38.85;14.35;;;;;;;;;;4980615;28;20031;-78
2022/12/22 03:36:42;;;;;;;35.97;15.30;;;;;;;;;;4981078;28;20405;-78
2022/12/22 03:39:08;;;;;;;51.65;16.52;;;;;;;;;;4981483;28;20056;-79
2022/12/22 03:47:04;;;;;;;38.17;15.00;;;;;;;;;;4980866;28;20050;-78
2022/12/22 03:49:30;;;;;;;43.45;15.75;;;;;;;;;;4981795;28;20026;-79
2022/12/22 03:51:56;;;;;;;33.67;14.25;;;;;;;;;;4980841;28;20027;-78
2022/12/22 03:54:23;;;;;;;36.03;16.02;;;;;;;;;;4981625;28;20078;-78
2022/12/22 03:56:50;;;;;;;43.58;16.52;;;;;;;;;;4984016;28;20031;-78
2022/12/22 03:59:17;;;;;;;36.63;15.25;;;;;;;;;;4983506;28;20033;-79
2022/12/22 04:01:44;;;;;;;41.33;15.18;;;;;;;;;;4983543;28;20500;-78
2022/12/22 04:04:10;;;;;;;47.33;15.25;;;;;;;;;;4984281;28;20078;-78
2022/12/22 04:06:36;;;;;;;46.42;18.77;;;;;;;;;;4983974;28;20046;-79
2022/12/22 04:09:03;;;;;;;49.20;16.23;;;;;;;;;;4983055;28;20026;-79
2022/12/22 04:14:13;;;;;;;47.22;16.60;;;;;;;;;;4984650;28;20042;-77
2022/12/22 04:16:39;;;;;;;33.20;15.90;;;;;;;;;;4985287;28;20023;-79
2022/12/22 04:19:06;;;;;;;38.60;16.23;;;;;;;;;;4983081;28;20028;-79
2022/12/22 04:21:33;;;;;;;54.80;17.67;;;;;;;;;;4982655;28;20544;-79
2022/12/22 04:23:59;;;;;;;48.35;15.35;;;;;;;;;;4981667;28;20054;-79
2022/12/22 04:26:25;;;;;;;44.10;16.60;;;;;;;;;;4980899;28;20085;-79
2022/12/22 04:28:51;;;;;;;39.42;16.58;;;;;;;;;;4982597;28;20038;-79
2022/12/22 04:31:18;;;;;;;52.58;20.00;;;;;;;;;;4982329;28;20037;-79
2022/12/22 04:33:44;;;;;;;48.22;17.67;;;;;;;;;;4977317;28;20062;-78
2022/12/22 04:36:11;;;;;;;44.58;17.30;;;;;;;;;;4980271;28;20023;-79
2022/12/22 04:38:37;;;;;;;48.40;17.00;;;;;;;;;;4979351;28;20398;-78
2022/12/22 04:41:03;;;;;;;47.75;16.13;;;;;;;;;;4982725;28;20027;-79
2022/12/22 04:43:29;;;;;;;50.70;16.95;;;;;;;;;;4981327;28;20030;-79
2022/12/22 04:45:56;;;;;;;48.53;17.70;;;;;;;;;;4979617;28;20342;-78
2022/12/22 04:48:23;;;;;;;48.08;16.02;;;;;;;;;;4982163;28;20026;-79
2022/12/22 04:50:53;;;;;;;38.08;16.48;;;;;;;;;;4981532;28;20034;-78
2022/12/22 04:53:19;;;;;;;44.22;16.83;;;;;;;;;;4980650;28;20027;-78
2022/12/22 04:55:46;;;;;;;47.13;19.67;;;;;;;;;;4979606;28;20027;-78
2022/12/22 04:58:12;;;;;;;40.15;16.23;;;;;;;;;;4980041;28;20035;-78
2022/12/22 05:00:38;;;;;;;43.58;16.30;;;;;;;;;;4981631;28;20058;-79
2022/12/22 05:03:04;;;;;;;38.45;15.68;;;;;;;;;;4979140;28;20058;-79
2022/12/22 05:05:30;;;;;;;39.90;16.73;;;;;;;;;;4980314;28;20485;-79
2022/12/22 05:07:56;;;;;;;49.28;19.02;;;;;;;;;;4981689;28;20042;-79
2022/12/22 05:10:22;;;;;;;46.38;15.85;;;;;;;;;;4980618;28;20440;-78
2022/12/22 05:12:54;;;;;;;48.65;17.58;;;;;;;;;;4977666;28;20401;-78
2022/12/22 05:15:24;;;;;;;49.30;15.75;;;;;;;;;;4965213;28;20109;-79
2022/12/22 05:17:51;;;;;;;50.08;18.30;;;;;;;;;;4979263;28;20377;-78
2022/12/22 05:20:17;;;;;;;43.42;17.20;;;;;;;;;;4979501;28;20097;-77
2022/12/22 05:22:43;;;;;;;44.05;16.88;;;;;;;;;;4979405;28;20106;-77
2022/12/22 05:25:10;;;;;;;51.72;17.45;;;;;;;;;;4979386;28;20057;-78
2022/12/22 05:27:36;;;;;;;49.00;16.50;;;;;;;;;;4985272;28;20097;-78
2022/12/22 05:30:03;;;;;;;50.00;18.17;;;;;;;;;;4980825;28;20022;-78
2022/12/22 05:32:31;;;;;;;49.20;17.75;;;;;;;;;;4978059;28;20019;-78
2022/12/22 05:34:58;;;;;;;44.72;16.02;;;;;;;;;;4978358;28;20073;-78
2022/12/22 05:37:24;;;;;;;42.80;18.02;;;;;;;;;;4990472;28;20023;-77
2022/12/22 05:39:50;;;;;;;42.80;14.55;;;;;;;;;;4983205;28;20035;-78
2022/12/22 05:42:34;;;;;;;48.88;17.20;;;;;;;;;;4978405;28;20051;-78
2022/12/22 05:45:20;;;;;;;48.42;16.83;;;;;;;;;;4980304;28;20055;-77
2022/12/22 05:47:48;;;;;;;41.90;16.15;;;;;;;;;;4973945;28;20039;-77
2022/12/22 05:50:15;;;;;;;44.75;17.70;;;;;;;;;;4976855;28;20035;-78
2022/12/22 05:52:41;;;;;;;41.30;15.82;;;;;;;;;;4979366;28;20453;-79
2022/12/22 05:55:07;;;;;;;35.42;15.90;;;;;;;;;;4978968;28;20058;-77
2022/12/22 05:57:33;;;;;;;53.35;17.33;;;;;;;;;;4988668;28;20018;-78
2022/12/22 05:59:59;;;;;;;43.40;17.42;;;;;;;;;;4986496;28;20030;-78
2022/12/22 06:02:25;;;;;;;42.63;17.15;;;;;;;;;;4983945;28;20045;-77
2022/12/22 06:04:52;;;;;;;45.17;17.38;;;;;;;;;;4982495;28;20031;-78
2022/12/22 06:07:18;;;;;;;50.63;19.83;;;;;;;;;;4982382;28;20065;-78
2022/12/22 06:09:44;;;;;;;48.40;16.20;;;;;;;;;;4978650;28;20081;-79
2022/12/22 06:12:10;;;;;;;49.17;17.30;;;;;;;;;;4976038;28;20023;-77
2022/12/22 06:14:36;;;;;;;50.83;16.95;;;;;;;;;;4980145;28;20023;-78
2022/12/22 06:17:02;;;;;;;51.90;18.40;;;;;;;;;;4982874;28;20556;-77
2022/12/22 06:19:28;;;;;;;44.83;17.33;;;;;;;;;;4983730;28;20062;-78
2022/12/22 06:21:54;;;;;;;46.05;17.00;;;;;;;;;;4986047;28;20274;-78
2022/12/22 06:24:20;;;;;;;46.13;17.60;;;;;;;;;;4978604;28;20066;-78
2022/12/22 06:26:46;;;;;;;39.63;15.82;;;;;;;;;;4982245;28;20051;-79
2022/12/22 06:29:13;;;;;;;53.65;17.77;;;;;;;;;;4982877;28;20523;-78
2022/12/22 06:31:39;;;;;;;42.67;18.05;;;;;;;;;;4982488;28;20393;-78
2022/12/22 06:34:06;;;;;;;51.88;19.55;;;;;;;;;;4973096;28;20022;-77
2022/12/22 06:36:33;;;;;;;36.67;17.35;;;;;;;;;;4982183;28;20114;-77
2022/12/22 06:38:59;;;;;;;47.17;17.70;;;;;;;;;;4980761;28;20582;-77
2022/12/22 06:44:09;;;;;;;44.75;16.98;;;;;;;;;;4982932;28;20127;-78
2022/12/22 06:46:36;;;;;;;47.70;18.52;;;;;;;;;;4983219;28;20042;-78
2022/12/22 06:49:02;;;;;;;44.17;18.45;;;;;;;;;;4984493;28;20035;-79
2022/12/22 06:51:28;;;;;;;53.53;20.58;;;;;;;;;;4981769;28;20027;-78
2022/12/22 06:53:54;;;;;;;53.55;20.20;;;;;;;;;;4975965;28;20046;-78
2022/12/22 06:56:20;;;;;;;56.45;21.52;;;;;;;;;;4977311;28;20019;-78
2022/12/22 06:58:46;;;;;;;54.72;20.88;;;;;;;;;;4977553;28;20511;-77
2022/12/22 07:01:12;;;;;;;49.78;18.67;;;;;;;;;;4972234;28;20042;-79
2022/12/22 07:03:38;;;;;;;39.33;16.25;;;;;;;;;;4984478;28;20107;-79
2022/12/22 07:06:04;;;;;;;42.58;17.48;;;;;;;;;;4980577;28;20023;-78
2022/12/22 07:08:30;;;;;;;47.38;16.27;;;;;;;;;;4983649;28;20027;-80
2022/12/22 07:10:59;;;;;;;49.58;18.08;;;;;;;;;;4983361;28;20037;-79
2022/12/22 07:13:27;;;;;;;40.92;18.95;;;;;;;;;;4980379;28;20039;-78
2022/12/22 07:15:53;;;;;;;39.35;16.30;;;;;;;;;;4984660;28;20328;-78
2022/12/22 07:18:19;;;;;;;45.33;18.42;;;;;;;;;;4986032;28;20054;-79
2022/12/22 07:20:45;;;;;;;52.00;19.20;;;;;;;;;;4989333;28;20750;-79
2022/12/22 07:23:11;;;;;;;37.45;16.15;;;;;;;;;;4983039;28;20054;-79
2022/12/22 07:25:38;;;;;;;44.25;16.80;;;;;;;;;;4987139;28;20042;-79
2022/12/22 07:28:05;;;;;;;48.63;17.48;;;;;;;;;;4996990;28;20091;-78
2022/12/22 07:30:31;;;;;;;44.95;18.33;;;;;;;;;;4984330;28;20026;-79
2022/12/22 07:32:57;;;;;;;52.85;21.77;;;;;;;;;;4983172;28;20093;-78
2022/12/22 07:35:23;;;;;;;51.28;18.40;;;;;;;;;;4986626;28;20031;-79
2022/12/22 07:37:49;;;;;;;49.35;21.75;;;;;;;;;;4986914;28;20027;-77
2022/12/22 07:40:16;;;;;;;44.42;16.88;;;;;;;;;;4978248;28;20022;-79
2022/12/22 07:42:44;;;;;;;49.33;19.80;;;;;;;;;;4986782;28;20038;-79
2022/12/22 07:45:14;;;;;;;60.00;20.83;;;;;;;;;;4987252;28;20035;-79
2022/12/22 07:47:41;;;;;;;50.85;20.38;;;;;;;;;;4987079;28;20636;-79
2022/12/22 07:50:24;;;;;;;55.92;17.60;;;;;;;;;;4986451;28;20019;-79
2022/12/22 07:52:57;;;;;;;49.58;20.63;;;;;;;;;;4985377;28;20023;-79
2022/12/22 07:55:23;;;;;;;;;;;;;;;;;;4988765;28;20034;-79
2022/12/22 07:57:49;;;;;;;35.53;15.48;;;;;;;;;;4987185;28;19918;-79
2022/12/22 08:00:15;;;;;;;45.28;16.08;;;;;;;;;;4986828;28;20031;-79
2022/12/22 08:02:41;;;;;;;44.05;18.25;;;;;;;;;;4986621;28;20030;-79
2022/12/22 08:05:08;;;;;;;42.00;18.80;;;;;;;;;;4986298;28;20027;-78
2022/12/22 08:07:34;;;;;;;44.58;17.60;;;;;;;;;;4982904;28;20027;-79
2022/12/22 08:10:00;;;;;;;58.38;20.30;;;;;;;;;;4988033;28;20093;-78
2022/12/22 08:12:28;;;;;;;43.22;18.00;;;;;;;;;;4970615;28;20027;-79
2022/12/22 08:14:54;;;;;;;43.22;18.20;;;;;;;;;;4988728;28;20034;-80
2022/12/22 08:17:20;;;;;;;44.28;18.20;;;;;;;;;;4989027;28;20027;-78
2022/12/22 08:19:47;;;;;;;40.85;17.05;;;;;;;;;;4985318;28;20038;-78
2022/12/22 08:22:13;;;;;;;41.20;17.33;;;;;;;;;;4984970;28;20062;-77
2022/12/22 08:24:39;;;;;;;45.65;15.73;;;;;;;;;;4985168;28;20058;-78
2022/12/22 08:27:08;;;;;;;39.13;16.77;;;;;;;;;;4983778;28;20042;-78
2022/12/22 08:29:39;;;;;;;37.03;16.33;;;;;;;;;;4987637;28;20031;-79
2022/12/22 08:32:06;;;;;;;37.53;17.17;;;;;;;;;;4988216;28;20034;-79
2022/12/22 08:34:32;;;;;;;40.33;15.90;;;;;;;;;;4987153;28;20050;-79
2022/12/22 08:37:00;;;;;;;38.65;17.08;;;;;;;;;;4986615;28;20027;-79
2022/12/22 08:39:27;;;;;;;44.05;15.75;;;;;;;;;;4984711;28;20397;-78
2022/12/22 08:41:53;;;;;;;46.78;17.38;;;;;;;;;;4987276;28;20565;-79
2022/12/22 08:44:24;;;;;;;51.63;18.00;;;;;;;;;;4988539;28;20158;-78
2022/12/22 08:46:50;;;;;;;48.60;18.50;;;;;;;;;;4985793;28;20038;-79
2022/12/22 08:49:16;;;;;;;35.60;17.33;;;;;;;;;;4985099;28;20083;-79
2022/12/22 08:51:43;;;;;;;51.65;18.55;;;;;;;;;;4992424;28;20031;-77
2022/12/22 08:54:09;;;;;;;48.15;18.38;;;;;;;;;;4990699;28;20038;-78
2022/12/22 08:56:35;;;;;;;48.60;17.08;;;;;;;;;;4989113;28;20031;-80
2022/12/22 08:59:04;;;;;;;44.53;17.05;;;;;;;;;;4986109;28;20030;-80
2022/12/22 09:01:31;;;;;;;42.00;17.58;;;;;;;;;;4987974;28;20037;-79
2022/12/22 09:03:57;;;;;;;57.22;19.10;;;;;;;;;;4987685;28;20516;-80
2022/12/22 09:06:24;;;;;;;46.10;17.95;;;;;;;;;;4988197;28;20027;-80
2022/12/22 09:08:57;;;;;;;42.00;16.23;;;;;;;;;;4986947;28;20049;-80
2022/12/22 09:11:23;;;;;;;;;;;;;;;;;;4987218;28;20052;-80
2022/12/22 09:13:52;;;;;;;39.17;14.90;;;;;;;;;;4988645;28;19937;-80
2022/12/22 09:16:19;;;;;;;40.80;15.07;;;;;;;;;;4988300;28;20027;-80
2022/12/22 09:18:45;;;;;;;38.20;16.52;;;;;;;;;;4969419;28;20045;-79
2022/12/22 09:21:11;;;;;;;40.45;18.10;;;;;;;;;;4988010;28;20106;-80
2022/12/22 09:23:37;;;;;;;42.28;17.20;;;;;;;;;;4988816;28;20030;-79
2022/12/22 09:26:10;;;;;;;38.28;17.77;;;;;;;;;;4986211;28;20425;-80
2022/12/22 09:28:36;;;;;;;;;;;;;;;;;;4981564;28;20030;-81
2022/12/22 09:31:02;;;;;;;50.00;16.98;;;;;;;;;;4981565;28;20048;-78
2022/12/22 09:33:28;;;;;;;42.15;17.27;;;;;;;;;;4982606;28;20564;-78
2022/12/22 09:35:54;;;;;;;47.30;18.30;;;;;;;;;;4984313;28;20046;-79
2022/12/22 09:38:20;;;;;;;42.22;16.98;;;;;;;;;;4983031;28;20030;-79
2022/12/22 09:40:46;;;;;;;40.20;16.35;;;;;;;;;;4985598;28;20109;-79
2022/12/22 09:43:15;;;;;;;43.00;18.25;;;;;;;;;;4985122;28;20401;-78
2022/12/22 09:45:41;;;;;;;43.38;15.70;;;;;;;;;;4983725;28;20023;-80
2022/12/22 09:48:10;;;;;;;47.33;17.60;;;;;;;;;;4973334;28;20025;-79
2022/12/22 09:50:38;;;;;;;41.08;17.90;;;;;;;;;;4970132;28;20441;-80
2022/12/22 09:53:06;;;;;;;50.10;18.98;;;;;;;;;;4976408;28;20034;-81
2022/12/22 09:55:37;;;;;;;41.75;18.13;;;;;;;;;;4978093;28;20749;-81
2022/12/22 09:58:03;;;;;;;44.92;18.70;;;;;;;;;;4977949;28;20026;-81
2022/12/22 10:00:30;;;;;;;47.03;18.75;;;;;;;;;;4975707;28;20043;-81
2022/12/22 10:03:04;;;;;;;53.88;20.42;;;;;;;;;;4973979;28;20014;-79
2022/12/22 10:05:37;;;;;;;43.75;17.23;;;;;;;;;;4979913;28;20090;-80
2022/12/22 10:08:09;;;;;;;55.53;19.70;;;;;;;;;;4989022;28;20580;-80
2022/12/22 10:10:35;;;;;;;43.28;17.42;;;;;;;;;;4979259;28;20035;-79
2022/12/22 10:13:02;;;;;;;47.55;18.58;;;;;;;;;;4977607;28;20022;-81
2022/12/22 10:15:38;;;;;;;47.05;16.52;;;;;;;;;;4974259;28;20015;-82
2022/12/22 10:18:10;;;;;;;43.90;17.23;;;;;;;;;;4975878;28;20055;-80
2022/12/22 10:20:38;;;;;;;47.13;16.80;;;;;;;;;;4957496;28;20031;-81
2022/12/22 10:23:13;;;;;;;40.70;16.33;;;;;;;;;;4973878;28;20134;-81
2022/12/22 10:25:59;;;;;;;46.90;18.20;;;;;;;;;;4975505;28;20038;-82
2022/12/22 10:28:29;;;;;;;42.10;16.45;;;;;;;;;;4974271;28;20074;-81
2022/12/22 10:31:25;;;;;;;46.40;18.88;;;;;;;;;;4976697;28;20041;-81
2022/12/22 10:33:53;;;;;;;48.75;17.65;;;;;;;;;;4945069;28;20694;-82
2022/12/22 10:36:25;;;;;;;46.80;18.10;;;;;;;;;;4977205;28;20489;-81
2022/12/22 10:39:08;;;;;;;48.90;19.42;;;;;;;;;;4977007;28;20030;-82
2022/12/22 10:41:43;;;;;;;48.22;19.35;;;;;;;;;;4976592;28;20117;-82
2022/12/22 10:44:20;;;;;;;39.58;18.45;;;;;;;;;;4978891;28;20022;-82
2022/12/22 10:46:47;;;;;;;46.92;17.85;;;;;;;;;;4978679;28;20023;-82
2022/12/22 10:49:17;;;;;;;40.25;17.92;;;;;;;;;;4978330;28;20027;-82
2022/12/22 10:51:44;;;;;;;41.80;19.20;;;;;;;;;;4978221;28;20026;-81
2022/12/22 10:54:22;;;;;;;46.25;19.80;;;;;;;;;;4978120;28;20030;-80
2022/12/22 10:56:58;;;;;;;45.08;16.77;;;;;;;;;;4978091;28;20022;-81
2022/12/22 10:59:24;;;;;;;36.35;18.33;;;;;;;;;;4977869;28;20623;-80
2022/12/22 11:01:49;;;;;;;37.42;16.02;;;;;;;;;;4976932;28;20023;-81
2022/12/22 11:04:16;;;;;;;34.28;15.70;;;;;;;;;;4981586;28;20082;-81
2022/12/22 11:06:43;;;;;;;30.00;14.32;;;;;;;;;;4985703;28;20397;-80
2022/12/22 11:09:12;;;;;;;34.17;15.82;;;;;;;;;;4984950;28;20026;-79
2022/12/22 11:12:00;;;;;;;31.15;15.35;;;;;;;;;;4981828;28;20027;-80
2022/12/22 11:14:34;;;;;;;29.77;14.65;;;;;;;;;;4982298;28;20031;-80
2022/12/22 11:16:59;;;;;;;28.42;14.50;;;;;;;;;;4981307;28;20150;-80
2022/12/22 11:19:34;;;;;;;29.65;14.73;;;;;;;;;;4981444;28;20454;-81
2022/12/22 11:22:03;;;;;;;31.80;13.73;;;;;;;;;;4979131;28;20046;-81
2022/12/22 11:24:42;;;;;;;32.72;15.60;;;;;;;;;;4980420;28;20034;-81
2022/12/22 11:27:20;;;;;;;31.55;13.80;;;;;;;;;;4981142;28;20134;-81
2022/12/22 11:29:58;;;;;;;34.95;17.00;;;;;;;;;;4981243;28;20037;-82
2022/12/22 11:32:33;;;;;;;31.83;14.70;;;;;;;;;;4981443;28;20105;-80
2022/12/22 11:35:18;;;;;;;36.95;16.27;;;;;;;;;;4980879;28;20027;-79
2022/12/22 11:37:49;;;;;;;29.75;13.95;;;;;;;;;;4980509;28;20150;-81
2022/12/22 11:40:22;;;;;;;30.00;14.05;;;;;;;;;;4980006;28;20073;-80
2022/12/22 11:43:06;;;;;;;36.20;17.27;;;;;;;;;;4981340;28;20042;-80
2022/12/22 11:45:32;;;;;;;33.55;15.07;;;;;;;;;;4977938;28;20030;-81
2022/12/22 11:48:01;;;;;;;36.90;16.20;;;;;;;;;;4980782;28;20039;-81
2022/12/22 11:50:39;;;;;;;31.67;13.90;;;;;;;;;;4977006;28;20034;-81
2022/12/22 11:53:29;;;;;;;42.75;15.73;;;;;;;;;;4970216;28;20032;-80
2022/12/22 11:56:05;;;;;;;37.63;14.90;;;;;;;;;;4936343;28;20039;-81
2022/12/22 11:58:31;;;;;;;33.65;16.00;;;;;;;;;;4982227;28;20038;-80
2022/12/22 12:01:11;;;;;;;37.03;15.68;;;;;;;;;;4973076;28;20078;-81
2022/12/22 12:03:49;;;;;;;34.90;15.93;;;;;;;;;;4992920;28;20045;-81
2022/12/22 12:06:27;;;;;;;30.83;15.38;;;;;;;;;;4983252;28;20057;-80
2022/12/22 12:09:12;;;;;;;33.38;15.35;;;;;;;;;;4980740;28;20058;-81
2022/12/22 12:11:53;;;;;;;35.90;13.45;;;;;;;;;;4976858;28;20551;-81
2022/12/22 12:14:27;;;;;;;37.95;18.65;;;;;;;;;;4976813;28;20100;-81
2022/12/22 12:16:58;;;;;;;37.85;16.00;;;;;;;;;;4979752;28;20044;-81
2022/12/22 12:19:27;;;;;;;38.15;15.65;;;;;;;;;;4980662;28;20023;-81
2022/12/22 12:22:01;;;;;;;37.22;17.35;;;;;;;;;;4978279;28;20069;-81
2022/12/22 12:24:33;;;;;;;36.30;16.40;;;;;;;;;;4980344;28;20027;-81
2022/12/22 12:27:10;;;;;;;36.80;17.10;;;;;;;;;;4977311;28;20053;-82
2022/12/22 12:29:52;;;;;;;36.05;15.27;;;;;;;;;;4961018;28;20118;-80
2022/12/22 12:32:31;;;;;;;29.20;13.93;;;;;;;;;;4953093;28;20030;-81
2022/12/22 12:35:03;;;;;;;34.47;16.55;;;;;;;;;;4972000;28;20038;-82
2022/12/22 12:37:30;;;;;;;32.17;15.60;;;;;;;;;;4977467;28;20511;-81
2022/12/22 12:40:06;;;;;;;36.45;16.83;;;;;;;;;;4980701;28;20126;-81
2022/12/22 12:42:34;;;;;;;32.47;15.30;;;;;;;;;;4977037;28;20031;-80
2022/12/22 12:45:01;;;;;;;41.42;16.83;;;;;;;;;;4976324;28;20034;-81
2022/12/22 12:47:27;;;;;;;38.28;17.08;;;;;;;;;;4979838;28;20035;-82
2022/12/22 12:49:53;;;;;;;37.08;17.55;;;;;;;;;;4977655;28;20065;-81
2022/12/22 12:52:39;;;;;;;34.88;16.33;;;;;;;;;;4969582;28;20058;-80
2022/12/22 12:55:20;;;;;;;33.42;15.50;;;;;;;;;;4979149;28;20551;-82
2022/12/22 12:57:47;;;;;;;42.25;15.95;;;;;;;;;;4978673;28;20027;-81
2022/12/22 13:00:45;;;;;;;36.75;16.73;;;;;;;;;;4979661;28;20081;-82
2022/12/22 13:03:12;;;;;;;38.45;16.50;;;;;;;;;;4883674;29;20044;-81
2022/12/22 13:05:52;;;;;;;31.25;15.52;;;;;;;;;;4884347;29;20045;-82
2022/12/22 13:08:22;;;;;;;31.63;13.73;;;;;;;;;;4868294;29;20074;-81
2022/12/22 13:10:48;;;;;;;36.33;16.15;;;;;;;;;;4883072;29;20037;-81
2022/12/22 13:13:23;;;;;;;36.75;16.88;;;;;;;;;;4866651;29;20084;-81
2022/12/22 13:16:09;;;;;;;39.13;17.40;;;;;;;;;;4883556;29;20069;-81
2022/12/22 13:18:45;;;;;;;37.17;18.25;;;;;;;;;;4882841;29;20063;-81
2022/12/22 13:21:25;;;;;;;37.10;19.25;;;;;;;;;;4893973;29;20052;-81
2022/12/22 13:23:54;;;;;;;35.70;16.90;;;;;;;;;;4887005;29;20050;-81
2022/12/22 13:26:28;;;;;;;40.17;17.48;;;;;;;;;;4880975;29;20045;-81
2022/12/22 13:28:56;;;;;;;33.17;15.10;;;;;;;;;;4882023;29;20033;-81
2022/12/22 13:31:28;;;;;;;34.22;17.13;;;;;;;;;;4880259;29;20115;-80
2022/12/22 13:34:17;;;;;;;36.00;17.05;;;;;;;;;;4881376;29;20033;-82
2022/12/22 13:36:43;;;;;;;36.17;17.85;;;;;;;;;;4828890;29;20037;-81
2022/12/22 13:39:13;;;;;;;39.90;16.90;;;;;;;;;;4865292;29;20103;-81
2022/12/22 13:41:44;;;;;;;33.28;16.92;;;;;;;;;;4919019;29;20082;-81
2022/12/22 13:44:36;;;;;;;41.28;19.38;;;;;;;;;;4917975;29;20486;-81
2022/12/22 13:47:14;;;;;;;34.00;16.40;;;;;;;;;;4914395;29;20105;-81
2022/12/22 13:49:47;;;;;;;32.72;15.57;;;;;;;;;;5072978;28;20433;-81
2022/12/22 13:52:16;;;;;;;37.00;16.23;;;;;;;;;;5074756;28;20096;-82
2022/12/22 13:54:43;;;;;;;35.03;16.05;;;;;;;;;;5074676;28;20021;-80
2022/12/22 13:57:15;;;;;;;32.97;14.40;;;;;;;;;;5059938;28;20033;-80
2022/12/22 13:59:44;;;;;;;29.92;15.38;;;;;;;;;;5063889;28;20029;-80
2022/12/22 14:02:11;;;;;;;33.83;16.48;;;;;;;;;;5042576;28;20483;-81
2022/12/22 14:04:39;;;;;;;37.75;16.98;;;;;;;;;;5054516;28;20061;-81
2022/12/22 14:07:12;;;;;;;33.97;16.83;;;;;;;;;;5052463;28;20021;-82
2022/12/22 14:09:42;;;;;;;33.05;19.83;;;;;;;;;;5052956;28;20443;-82
2022/12/22 14:12:12;;;;;;;35.17;17.05;;;;;;;;;;5052743;28;20045;-81
2022/12/22 14:14:39;;;;;;;40.50;17.17;;;;;;;;;;5049202;28;20045;-81
2022/12/22 14:17:15;;;;;;;35.25;16.42;;;;;;;;;;5049201;28;20009;-81
2022/12/22 14:19:41;;;;;;;36.78;16.08;;;;;;;;;;5073244;28;20036;-81
2022/12/22 14:22:09;;;;;;;34.22;16.52;;;;;;;;;;5074318;28;20052;-82
2022/12/22 14:24:41;;;;;;;31.08;14.45;;;;;;;;;;5061525;28;20025;-81
2022/12/22 14:27:14;;;;;;;34.13;15.48;;;;;;;;;;5051306;28;20425;-81
2022/12/22 14:29:41;;;;;;;34.45;16.27;;;;;;;;;;5066262;28;20052;-79
2022/12/22 14:32:08;;;;;;;32.97;16.50;;;;;;;;;;5068274;28;20043;-80
2022/12/22 14:34:34;;;;;;;36.53;16.20;;;;;;;;;;5068746;28;20014;-80
2022/12/22 14:37:01;;;;;;;31.48;15.77;;;;;;;;;;5056039;28;20093;-80
2022/12/22 14:39:30;;;;;;;30.85;14.82;;;;;;;;;;5052346;28;20032;-81
2022/12/22 14:41:57;;;;;;;33.00;16.58;;;;;;;;;;5051877;28;20124;-78
2022/12/22 14:44:23;;;;;;;31.27;14.77;;;;;;;;;;5053629;28;20021;-82
2022/12/22 14:47:16;;;;;;;33.10;17.08;;;;;;;;;;5051911;28;20026;-81
2022/12/22 14:49:57;;;;;;;31.92;16.33;;;;;;;;;;5050228;28;20539;-81
2022/12/22 14:52:26;;;;;;;31.08;16.05;;;;;;;;;;5051840;28;20025;-81
2022/12/22 14:54:54;;;;;;;29.40;15.63;;;;;;;;;;5052941;28;20383;-81
2022/12/22 14:57:24;;;;;;;32.83;16.55;;;;;;;;;;5052918;28;20719;-80
2022/12/22 15:00:01;;;;;;;35.28;18.55;;;;;;;;;;5054456;28;20026;-80
2022/12/22 15:02:32;;;;;;;32.55;16.20;;;;;;;;;;5053455;28;20029;-79
2022/12/22 15:05:14;;;;;;;34.95;17.23;;;;;;;;;;5053934;28;20022;-79
2022/12/22 15:07:44;;;;;;;36.75;16.45;;;;;;;;;;5043898;28;20025;-80
2022/12/22 15:10:10;;;;;;;37.30;16.58;;;;;;;;;;5036773;28;20035;-78
2022/12/22 15:12:36;;;;;;;37.65;18.05;;;;;;;;;;5038993;28;20678;-81
2022/12/22 15:15:02;;;;;;;35.80;15.73;;;;;;;;;;5038826;28;20438;-80
2022/12/22 15:17:28;;;;;;;32.85;16.15;;;;;;;;;;5038238;28;20528;-80
2022/12/22 15:19:56;;;;;;;32.78;15.50;;;;;;;;;;5039429;28;20022;-81
2022/12/22 15:22:22;;;;;;;34.83;16.48;;;;;;;;;;5036800;28;20494;-81
2022/12/22 15:24:48;;;;;;;32.45;15.85;;;;;;;;;;5036491;28;20030;-81
2022/12/22 15:27:14;;;;;;;30.92;15.90;;;;;;;;;;5041634;28;20466;-78
2022/12/22 15:29:40;;;;;;;34.55;17.00;;;;;;;;;;5053522;28;20064;-78
2022/12/22 15:32:13;;;;;;;35.03;17.08;;;;;;;;;;5051104;28;20104;-81
2022/12/22 15:34:39;;;;;;;36.72;16.27;;;;;;;;;;5038510;28;20022;-81
2022/12/22 15:37:05;;;;;;;35.47;17.33;;;;;;;;;;5038327;28;20029;-83
2022/12/22 15:39:32;;;;;;;33.55;15.90;;;;;;;;;;5034486;28;20075;-82
2022/12/22 15:41:58;;;;;;;34.50;18.88;;;;;;;;;;5031758;28;20018;-81
2022/12/22 15:44:24;;;;;;;39.55;19.67;;;;;;;;;;5030479;28;20434;-80
2022/12/22 15:46:57;;;;;;;36.05;17.08;;;;;;;;;;5033135;28;20031;-80
2022/12/22 15:49:22;;;;;;;;;;;;;;;;;;5051776;28;20050;-80
2022/12/22 15:51:51;;;;;;;31.70;17.10;;;;;;;;;;5036612;28;20040;-81
2022/12/22 15:54:18;;;;;;;34.10;16.23;;;;;;;;;;5047417;28;20013;-79
2022/12/22 15:56:44;;;;;;;35.05;18.35;;;;;;;;;;5042814;28;20029;-81
2022/12/22 15:59:15;;;;;;;37.15;17.60;;;;;;;;;;5038134;28;20030;-82
2022/12/22 16:01:41;;;;;;;40.30;21.60;;;;;;;;;;5041519;28;20454;-81
2022/12/22 16:04:08;;;;;;;38.65;20.27;;;;;;;;;;5042321;28;20060;-81
2022/12/22 16:06:34;;;;;;;39.63;23.70;;;;;;;;;;5042711;28;20060;-81
2022/12/22 16:09:00;;;;;;;44.58;24.92;;;;;;;;;;5040928;28;20053;-81
2022/12/22 16:11:26;;;;;;;35.85;21.08;;;;;;;;;;5037343;28;20026;-81
2022/12/22 16:13:52;;;;;;;39.35;18.10;;;;;;;;;;5045050;28;20020;-79
2022/12/22 16:16:18;;;;;;;36.60;19.92;;;;;;;;;;5044967;28;20093;-80
2022/12/22 16:18:44;;;;;;;33.42;17.05;;;;;;;;;;5038596;28;20025;-80
2022/12/22 16:21:15;;;;;;;30.73;17.88;;;;;;;;;;5035488;28;20445;-81
2022/12/22 16:23:44;;;;;;;35.70;19.23;;;;;;;;;;5037393;28;20029;-80
2022/12/22 16:26:15;;;;;;;31.10;16.52;;;;;;;;;;5037326;28;20090;-81
2022/12/22 16:28:41;;;;;;;29.13;14.25;;;;;;;;;;5034940;28;20072;-81
2022/12/22 16:31:14;;;;;;;24.33;13.73;;;;;;;;;;5036293;28;20040;-80
2022/12/22 16:33:40;;;;;;;28.85;14.07;;;;;;;;;;5037420;28;20030;-81
2022/12/22 16:36:07;;;;;;;25.02;12.77;;;;;;;;;;5036635;28;20498;-80
2022/12/22 16:38:34;;;;;;;31.40;15.00;;;;;;;;;;5032165;28;20021;-81
2022/12/22 16:41:02;;;;;;;31.23;14.43;;;;;;;;;;5037792;28;20036;-78
2022/12/22 16:43:34;;;;;;;29.67;15.38;;;;;;;;;;5036774;28;20120;-80
2022/12/22 16:46:01;;;;;;;24.40;13.38;;;;;;;;;;5036945;28;20056;-80
2022/12/22 16:48:34;;;;;;;29.35;14.55;;;;;;;;;;5033125;28;20044;-81
2022/12/22 16:51:00;;;;;;;26.95;14.07;;;;;;;;;;5035433;28;20017;-81
2022/12/22 16:53:27;;;;;;;26.58;15.20;;;;;;;;;;5034841;28;20022;-80
2022/12/22 16:55:53;;;;;;;29.58;16.33;;;;;;;;;;5034304;28;20060;-81
2022/12/22 16:58:20;;;;;;;30.90;16.55;;;;;;;;;;5036972;28;20029;-81
2022/12/22 17:00:46;;;;;;;29.08;14.82;;;;;;;;;;5035865;28;20025;-80
2022/12/22 17:03:18;;;;;;;29.05;14.05;;;;;;;;;;5031515;28;20028;-80
2022/12/22 17:05:52;;;;;;;30.30;16.00;;;;;;;;;;5034715;28;20034;-80
2022/12/22 17:08:29;;;;;;;25.60;13.13;;;;;;;;;;5034722;28;20034;-80
2022/12/22 17:10:57;;;;;;;23.42;13.43;;;;;;;;;;5026810;28;20040;-80
2022/12/22 17:13:23;;;;;;;20.90;11.63;;;;;;;;;;5034055;28;20026;-81
2022/12/22 17:15:50;;;;;;;25.02;12.52;;;;;;;;;;5034015;28;20030;-81
2022/12/22 17:18:17;;;;;;;24.42;13.40;;;;;;;;;;5030067;28;20033;-80
2022/12/22 17:20:44;;;;;;;25.00;13.57;;;;;;;;;;5036006;28;20491;-80
2022/12/22 17:23:21;;;;;;;21.65;11.43;;;;;;;;;;5035556;28;20428;-80
2022/12/22 17:25:47;;;;;;;27.65;12.52;;;;;;;;;;5036530;28;20116;-81
2022/12/22 17:28:13;;;;;;;29.42;16.02;;;;;;;;;;5034990;28;20029;-81
2022/12/22 17:30:39;;;;;;;27.27;14.30;;;;;;;;;;5036224;28;20033;-81
2022/12/22 17:33:05;;;;;;;26.08;15.95;;;;;;;;;;5036459;28;20037;-80
2022/12/22 17:35:33;;;;;;;30.67;15.55;;;;;;;;;;5036420;28;20069;-79
2022/12/22 17:37:59;;;;;;;27.48;15.52;;;;;;;;;;5036028;28;20026;-81
2022/12/22 17:40:33;;;;;;;31.77;15.52;;;;;;;;;;5036988;28;20036;-81
2022/12/22 17:42:59;;;;;;;29.48;15.85;;;;;;;;;;5036699;28;20276;-80
2022/12/22 17:45:25;;;;;;;34.90;17.48;;;;;;;;;;5034443;28;20033;-79
2022/12/22 17:47:51;;;;;;;31.17;16.45;;;;;;;;;;5036210;28;20522;-80
2022/12/22 17:50:18;;;;;;;27.73;15.48;;;;;;;;;;5044205;28;20040;-80
2022/12/22 17:52:45;;;;;;;27.05;13.70;;;;;;;;;;5043105;28;20093;-80
2022/12/22 17:55:22;;;;;;;22.98;14.05;;;;;;;;;;5037485;28;20025;-81
2022/12/22 17:57:49;;;;;;;27.10;13.00;;;;;;;;;;5034948;28;20047;-80
2022/12/22 18:00:19;;;;;;;27.80;12.77;;;;;;;;;;5035559;28;20037;-80
2022/12/22 18:02:45;;;;;;;24.00;13.65;;;;;;;;;;5035871;28;20116;-81
2022/12/22 18:05:21;;;;;;;24.42;13.90;;;;;;;;;;5036346;28;20021;-80
2022/12/22 18:07:49;;;;;;;44.20;24.42;;;;;;;;;;5036016;28;20108;-81